Time;durP1;ratioP1;P1;durP2;ratioP2;P2;SDS_P1;SDS_P2;PMS_P1;PMS_P2;Temp;Humidity;BMP_temperature;BMP_pressure;BME280_temperature;BME280_humidity;BME280_pressure;Samples;Min_cycle;Max_cycle;Signal;HPM_P1;HPM_P2
2021/11/14 00:02:15;;;;;;;8.00;6.43;;;;;;;;;;5071412;28;20183;-67
2021/11/14 00:04:46;;;;;;;10.63;6.43;;;;;;;;;;5071824;28;20182;-67
2021/11/14 00:07:14;;;;;;;7.18;6.00;;;;;;;;;;5071494;28;20281;-68
2021/11/14 00:09:41;;;;;;;9.02;7.63;;;;;;;;;;5071536;28;20189;-67
2021/11/14 00:12:10;;;;;;;10.98;8.07;;;;;;;;;;5071873;28;20226;-67
2021/11/14 00:14:38;;;;;;;9.63;7.43;;;;;;;;;;5071565;28;20267;-66
2021/11/14 00:17:07;;;;;;;10.75;8.20;;;;;;;;;;5071821;28;20645;-67
2021/11/14 00:19:40;;;;;;;8.95;5.85;;;;;;;;;;5067255;28;20197;-67
2021/11/14 00:22:08;;;;;;;7.57;6.75;;;;;;;;;;5071940;28;20641;-66
2021/11/14 00:24:40;;;;;;;8.35;6.95;;;;;;;;;;5071636;28;20646;-68
2021/11/14 00:27:10;;;;;;;9.00;7.00;;;;;;;;;;5068409;28;20202;-67
2021/11/14 00:29:39;;;;;;;9.60;6.50;;;;;;;;;;5071566;28;20572;-67
2021/11/14 00:32:11;;;;;;;8.18;7.13;;;;;;;;;;5071642;28;20277;-68
2021/11/14 00:34:50;;;;;;;8.25;6.60;;;;;;;;;;5067514;28;20232;-67
2021/11/14 00:37:19;;;;;;;8.57;6.38;;;;;;;;;;5071564;28;20220;-68
2021/11/14 00:39:47;;;;;;;7.53;6.47;;;;;;;;;;5071284;28;20190;-67
2021/11/14 00:42:17;;;;;;;6.57;5.60;;;;;;;;;;5071806;28;20200;-67
2021/11/14 00:44:47;;;;;;;8.63;6.47;;;;;;;;;;5071184;28;20178;-66
2021/11/14 00:47:20;;;;;;;8.27;7.22;;;;;;;;;;5071422;28;20198;-67
2021/11/14 00:49:47;;;;;;;13.30;9.25;;;;;;;;;;5071277;28;20645;-67
2021/11/14 00:52:16;;;;;;;12.75;10.65;;;;;;;;;;5071555;28;20696;-68
2021/11/14 00:54:43;;;;;;;13.30;9.77;;;;;;;;;;5070860;28;20210;-67
2021/11/14 00:57:13;;;;;;;9.75;7.60;;;;;;;;;;5071598;28;20201;-66
2021/11/14 00:59:40;;;;;;;9.23;8.27;;;;;;;;;;5071392;28;20261;-66
2021/11/14 01:02:10;;;;;;;10.70;8.20;;;;;;;;;;5072162;28;20194;-67
2021/11/14 01:04:44;;;;;;;10.35;7.43;;;;;;;;;;5072337;28;20186;-68
2021/11/14 01:07:24;;;;;;;12.98;8.05;;;;;;;;;;5072653;28;20194;-67
2021/11/14 01:09:52;;;;;;;14.80;8.65;;;;;;;;;;5072527;28;20182;-67
2021/11/14 01:12:26;;;;;;;13.30;9.18;;;;;;;;;;5072265;28;20291;-67
2021/11/14 01:14:56;;;;;;;16.50;9.20;;;;;;;;;;5073625;28;20213;-67
2021/11/14 01:17:28;;;;;;;18.42;8.82;;;;;;;;;;5074486;28;20212;-67
2021/11/14 01:19:59;;;;;;;16.13;10.65;;;;;;;;;;5072740;28;20248;-68
2021/11/14 01:22:33;;;;;;;18.15;11.20;;;;;;;;;;5074003;28;20237;-67
2021/11/14 01:25:05;;;;;;;14.88;9.82;;;;;;;;;;5072043;28;20228;-67
2021/11/14 01:27:37;;;;;;;16.08;9.38;;;;;;;;;;5072581;28;20190;-67
2021/11/14 01:30:10;;;;;;;14.15;8.63;;;;;;;;;;5072170;28;20658;-67
2021/11/14 01:32:40;;;;;;;13.25;9.23;;;;;;;;;;5071948;28;20191;-67
2021/11/14 01:35:15;;;;;;;15.02;11.45;;;;;;;;;;5073923;28;20214;-67
2021/11/14 01:37:53;;;;;;;11.15;9.20;;;;;;;;;;5072018;28;20311;-67
2021/11/14 01:40:23;;;;;;;15.45;9.10;;;;;;;;;;5072509;28;20197;-67
2021/11/14 01:42:59;;;;;;;13.27;8.95;;;;;;;;;;5073367;28;20186;-67
2021/11/14 01:45:37;;;;;;;14.68;10.15;;;;;;;;;;5072945;28;20193;-67
2021/11/14 01:48:12;;;;;;;16.63;10.38;;;;;;;;;;5072182;28;20255;-67
2021/11/14 01:50:42;;;;;;;19.63;10.75;;;;;;;;;;5072749;28;20193;-67
2021/11/14 01:53:15;;;;;;;13.13;9.82;;;;;;;;;;5072665;28;20689;-67
2021/11/14 01:55:56;;;;;;;13.77;10.00;;;;;;;;;;5074817;28;20200;-67
2021/11/14 01:58:25;;;;;;;16.88;10.85;;;;;;;;;;5071945;28;20202;-67
2021/11/14 02:01:00;;;;;;;16.35;10.77;;;;;;;;;;5072838;28;20198;-68
2021/11/14 02:03:31;;;;;;;16.45;11.70;;;;;;;;;;5071272;28;20189;-67
2021/11/14 02:06:07;;;;;;;16.30;11.70;;;;;;;;;;5074624;28;20182;-67
2021/11/14 02:08:37;;;;;;;14.70;9.50;;;;;;;;;;5071637;28;20204;-67
2021/11/14 02:11:10;;;;;;;16.23;8.20;;;;;;;;;;5072918;28;20233;-67
2021/11/14 02:13:45;;;;;;;9.98;7.63;;;;;;;;;;5073519;28;20193;-68
2021/11/14 02:16:15;;;;;;;11.55;8.85;;;;;;;;;;5072682;28;20204;-67
2021/11/14 02:18:44;;;;;;;13.05;10.35;;;;;;;;;;5071491;28;20540;-68
2021/11/14 02:21:15;;;;;;;11.43;8.27;;;;;;;;;;5072245;28;20645;-67
2021/11/14 02:23:43;;;;;;;9.90;7.75;;;;;;;;;;5071406;28;20657;-67
2021/11/14 02:26:10;;;;;;;13.15;9.50;;;;;;;;;;5071687;28;20186;-67
2021/11/14 02:28:44;;;;;;;11.70;9.45;;;;;;;;;;5073496;28;20277;-67
2021/11/14 02:31:13;;;;;;;11.55;7.97;;;;;;;;;;5076425;28;20212;-67
2021/11/14 02:33:41;;;;;;;10.50;8.18;;;;;;;;;;5075186;28;20257;-67
2021/11/14 02:36:12;;;;;;;10.25;7.82;;;;;;;;;;5075775;28;20192;-67
2021/11/14 02:39:12;;;;;;;10.00;8.32;;;;;;;;;;5079354;28;20503;-67
2021/11/14 02:42:03;;;;;;;12.43;8.52;;;;;;;;;;5078140;28;20198;-66
2021/11/14 02:44:32;;;;;;;10.05;6.70;;;;;;;;;;5077048;28;20190;-67
2021/11/14 02:47:04;;;;;;;8.32;6.13;;;;;;;;;;5075612;28;20239;-67
2021/11/14 02:49:36;;;;;;;7.93;6.43;;;;;;;;;;5074704;28;20197;-66
2021/11/14 02:52:06;;;;;;;9.68;6.85;;;;;;;;;;5075656;28;20194;-66
2021/11/14 02:54:35;;;;;;;7.60;6.15;;;;;;;;;;5074807;28;20253;-67
2021/11/14 02:57:05;;;;;;;8.50;6.15;;;;;;;;;;5075260;28;20194;-66
2021/11/14 02:59:34;;;;;;;7.47;6.13;;;;;;;;;;5074871;28;20194;-66
2021/11/14 03:02:10;;;;;;;6.28;5.63;;;;;;;;;;5074795;28;20616;-67
2021/11/14 03:04:38;;;;;;;9.05;6.53;;;;;;;;;;5074392;28;20292;-67
2021/11/14 03:07:06;;;;;;;9.88;7.07;;;;;;;;;;5075124;28;20198;-66
2021/11/14 03:09:35;;;;;;;8.18;6.40;;;;;;;;;;5074817;28;20236;-67
2021/11/14 03:12:03;;;;;;;9.18;6.30;;;;;;;;;;5074867;28;20249;-66
2021/11/14 03:14:33;;;;;;;8.50;6.30;;;;;;;;;;5073254;28;20214;-66
2021/11/14 03:17:03;;;;;;;9.07;6.45;;;;;;;;;;5074906;28;20240;-66
2021/11/14 03:19:32;;;;;;;8.75;7.07;;;;;;;;;;5074466;28;20191;-66
2021/11/14 03:21:59;;;;;;;9.48;7.00;;;;;;;;;;5074756;28;20194;-66
2021/11/14 03:24:32;;;;;;;12.13;7.90;;;;;;;;;;5073975;28;20645;-66
2021/11/14 03:27:05;;;;;;;14.73;9.20;;;;;;;;;;5074633;28;20248;-67
2021/11/14 03:29:32;;;;;;;13.68;8.15;;;;;;;;;;5074253;28;20222;-67
2021/11/14 03:32:04;;;;;;;14.55;9.27;;;;;;;;;;5074726;28;20191;-67
2021/11/14 03:34:33;;;;;;;14.50;8.95;;;;;;;;;;5073735;28;20271;-67
2021/11/14 03:37:02;;;;;;;13.35;9.70;;;;;;;;;;5074397;28;20190;-66
2021/11/14 03:39:29;;;;;;;11.23;8.52;;;;;;;;;;5073738;28;20186;-66
2021/11/14 03:41:58;;;;;;;12.25;7.95;;;;;;;;;;5073494;28;20508;-67
2021/11/14 03:44:26;;;;;;;12.63;8.25;;;;;;;;;;5073578;28;20183;-66
2021/11/14 03:46:54;;;;;;;8.65;6.47;;;;;;;;;;5074210;28;20206;-66
2021/11/14 03:49:21;;;;;;;8.68;6.40;;;;;;;;;;5073728;28;20190;-67
2021/11/14 03:51:50;;;;;;;8.43;6.95;;;;;;;;;;5073722;28;20715;-67
2021/11/14 03:54:18;;;;;;;9.57;8.23;;;;;;;;;;5073601;28;20218;-67
2021/11/14 03:56:45;;;;;;;9.13;6.45;;;;;;;;;;5074125;28;20715;-66
2021/11/14 03:59:14;;;;;;;8.75;7.32;;;;;;;;;;5073560;28;20194;-67
2021/11/14 04:01:44;;;;;;;10.18;7.30;;;;;;;;;;5074386;28;20192;-66
2021/11/14 04:04:15;;;;;;;9.32;7.25;;;;;;;;;;5073820;28;20190;-67
2021/11/14 04:06:43;;;;;;;11.90;7.50;;;;;;;;;;5074336;28;20202;-67
2021/11/14 04:09:12;;;;;;;9.43;7.30;;;;;;;;;;5073881;28;21045;-68
2021/11/14 04:11:39;;;;;;;9.60;7.15;;;;;;;;;;5053841;28;20229;-67
2021/11/14 04:14:12;;;;;;;9.23;6.65;;;;;;;;;;5053802;28;20190;-69
2021/11/14 04:16:42;;;;;;;9.93;6.97;;;;;;;;;;5053931;28;20289;-67
2021/11/14 04:19:11;;;;;;;8.98;7.70;;;;;;;;;;5069579;28;20189;-66
2021/11/14 04:21:39;;;;;;;10.18;7.60;;;;;;;;;;5074043;28;20190;-66
2021/11/14 04:24:07;;;;;;;10.07;7.95;;;;;;;;;;5073227;28;20669;-67
2021/11/14 04:26:40;;;;;;;11.27;7.97;;;;;;;;;;5073461;28;20236;-67
2021/11/14 04:29:07;;;;;;;9.75;7.82;;;;;;;;;;5073080;28;20825;-67
2021/11/14 04:31:37;;;;;;;10.05;8.00;;;;;;;;;;5073593;28;20589;-67
2021/11/14 04:34:05;;;;;;;10.05;7.43;;;;;;;;;;5072940;28;20189;-66
2021/11/14 04:36:32;;;;;;;11.40;8.15;;;;;;;;;;5072770;28;20273;-66
2021/11/14 04:39:00;;;;;;;10.30;8.65;;;;;;;;;;5072983;28;20190;-67
2021/11/14 04:41:27;;;;;;;11.50;7.97;;;;;;;;;;5073224;28;20285;-66
2021/11/14 04:43:56;;;;;;;11.25;8.50;;;;;;;;;;5073000;28;20649;-66
2021/11/14 04:46:24;;;;;;;11.93;8.00;;;;;;;;;;5072987;28;20190;-67
2021/11/14 04:48:53;;;;;;;13.27;9.05;;;;;;;;;;5072592;28;20186;-68
2021/11/14 04:51:23;;;;;;;13.05;9.13;;;;;;;;;;5073204;28;20186;-67
2021/11/14 04:53:50;;;;;;;14.20;10.38;;;;;;;;;;5072582;28;20593;-66
2021/11/14 04:56:24;;;;;;;11.50;9.98;;;;;;;;;;5073082;28;20218;-67
2021/11/14 04:58:53;;;;;;;10.65;9.43;;;;;;;;;;5073080;28;20221;-67
2021/11/14 05:01:22;;;;;;;14.68;9.18;;;;;;;;;;5072917;28;20632;-67
2021/11/14 05:03:50;;;;;;;13.25;8.90;;;;;;;;;;5072567;28;20598;-67
2021/11/14 05:06:20;;;;;;;8.88;7.18;;;;;;;;;;5072418;28;20195;-66
2021/11/14 05:08:51;;;;;;;10.38;7.55;;;;;;;;;;5072475;28;20190;-67
2021/11/14 05:11:18;;;;;;;10.45;8.27;;;;;;;;;;5072861;28;20240;-67
2021/11/14 05:13:46;;;;;;;10.10;8.23;;;;;;;;;;5072374;28;20225;-67
2021/11/14 05:16:14;;;;;;;9.90;7.43;;;;;;;;;;5072424;28;20665;-67
2021/11/14 05:18:44;;;;;;;13.02;9.07;;;;;;;;;;5072613;28;20218;-67
2021/11/14 05:21:12;;;;;;;11.57;7.68;;;;;;;;;;5072993;28;20225;-67
2021/11/14 05:23:40;;;;;;;10.23;7.13;;;;;;;;;;5072349;28;20198;-67
2021/11/14 05:26:11;;;;;;;10.10;7.47;;;;;;;;;;5072077;28;20182;-67
2021/11/14 05:28:40;;;;;;;10.82;7.65;;;;;;;;;;5072610;28;20548;-67
2021/11/14 05:31:08;;;;;;;12.13;8.60;;;;;;;;;;5072162;28;20190;-66
2021/11/14 05:33:36;;;;;;;11.30;8.32;;;;;;;;;;5072085;28;20187;-67
2021/11/14 05:36:05;;;;;;;10.00;8.25;;;;;;;;;;5072053;28;20232;-67
2021/11/14 05:38:38;;;;;;;12.18;7.72;;;;;;;;;;5071563;28;20285;-67
2021/11/14 05:41:05;;;;;;;10.40;7.93;;;;;;;;;;5072570;28;20197;-66
2021/11/14 05:43:37;;;;;;;11.88;8.27;;;;;;;;;;5071806;28;20194;-66
2021/11/14 05:46:09;;;;;;;10.73;8.13;;;;;;;;;;5072079;28;20235;-67
2021/11/14 05:48:37;;;;;;;10.02;7.32;;;;;;;;;;5072579;28;20190;-67
2021/11/14 05:51:06;;;;;;;12.05;8.35;;;;;;;;;;5071969;28;20197;-66
2021/11/14 05:53:34;;;;;;;9.95;8.23;;;;;;;;;;5072219;28;20205;-67
2021/11/14 05:56:03;;;;;;;8.90;7.47;;;;;;;;;;5071654;28;20224;-67
2021/11/14 05:58:38;;;;;;;10.25;8.10;;;;;;;;;;5072035;28;20201;-66
2021/11/14 06:01:13;;;;;;;7.60;6.57;;;;;;;;;;5071858;28;20189;-67
2021/11/14 06:03:54;;;;;;;10.20;6.80;;;;;;;;;;5072178;28;20221;-67
2021/11/14 06:06:23;;;;;;;10.20;7.68;;;;;;;;;;5071102;28;20247;-67
2021/11/14 06:08:51;;;;;;;8.70;7.15;;;;;;;;;;5072364;28;20190;-67
2021/11/14 06:11:20;;;;;;;8.73;7.10;;;;;;;;;;5071574;28;20218;-66
2021/11/14 06:13:49;;;;;;;9.98;7.63;;;;;;;;;;5071919;28;20653;-67
2021/11/14 06:16:16;;;;;;;8.75;6.60;;;;;;;;;;5071390;28;20314;-67
2021/11/14 06:18:44;;;;;;;9.85;6.57;;;;;;;;;;5071832;28;20186;-67
2021/11/14 06:21:21;;;;;;;7.53;6.72;;;;;;;;;;5071434;28;20186;-67
2021/11/14 06:23:51;;;;;;;10.35;7.90;;;;;;;;;;5072042;28;20281;-67
2021/11/14 06:26:18;;;;;;;8.18;6.55;;;;;;;;;;5071386;28;20541;-67
2021/11/14 06:28:50;;;;;;;8.95;7.32;;;;;;;;;;5071900;28;20186;-67
2021/11/14 06:31:20;;;;;;;9.65;6.95;;;;;;;;;;5071244;28;20198;-67
2021/11/14 06:33:48;;;;;;;8.40;7.05;;;;;;;;;;5071782;28;20284;-67
2021/11/14 06:36:15;;;;;;;9.40;7.35;;;;;;;;;;5071480;28;20541;-67
2021/11/14 06:38:44;;;;;;;8.18;6.93;;;;;;;;;;5071806;28;20190;-67
2021/11/14 06:41:13;;;;;;;8.05;6.63;;;;;;;;;;5069243;28;20187;-70
2021/11/14 06:43:40;;;;;;;9.63;7.65;;;;;;;;;;5070116;28;20194;-66
2021/11/14 06:46:15;;;;;;;8.10;6.07;;;;;;;;;;5069558;28;20199;-67
2021/11/14 06:48:43;;;;;;;10.20;6.95;;;;;;;;;;5070016;28;20197;-68
2021/11/14 06:51:11;;;;;;;8.50;7.47;;;;;;;;;;5069928;28;20222;-67
2021/11/14 06:53:39;;;;;;;7.45;6.63;;;;;;;;;;5070014;28;20259;-68
2021/11/14 06:56:09;;;;;;;8.00;6.35;;;;;;;;;;5065088;28;20218;-67
2021/11/14 06:58:39;;;;;;;8.15;7.35;;;;;;;;;;5069894;28;20608;-67
2021/11/14 07:01:16;;;;;;;10.02;7.82;;;;;;;;;;5069482;28;20198;-67
2021/11/14 07:03:43;;;;;;;8.40;6.95;;;;;;;;;;5070110;28;20196;-67
2021/11/14 07:06:11;;;;;;;8.55;6.88;;;;;;;;;;5069412;28;20187;-67
2021/11/14 07:08:47;;;;;;;8.13;6.60;;;;;;;;;;5069875;28;20198;-68
2021/11/14 07:11:19;;;;;;;9.80;6.85;;;;;;;;;;5069393;28;20248;-67
2021/11/14 07:13:50;;;;;;;9.52;6.65;;;;;;;;;;5070025;28;20281;-67
2021/11/14 07:16:17;;;;;;;6.78;6.05;;;;;;;;;;5067583;28;20245;-67
2021/11/14 07:18:45;;;;;;;12.57;7.35;;;;;;;;;;5072789;28;20244;-68
2021/11/14 07:21:15;;;;;;;7.25;6.35;;;;;;;;;;5073597;28;20193;-67
2021/11/14 07:23:48;;;;;;;8.02;6.68;;;;;;;;;;5072057;28;20255;-69
2021/11/14 07:26:16;;;;;;;9.35;6.85;;;;;;;;;;5070597;28;20217;-67
2021/11/14 07:28:54;;;;;;;8.50;7.60;;;;;;;;;;5073432;28;20551;-67
2021/11/14 07:31:25;;;;;;;8.10;7.30;;;;;;;;;;5069883;28;20240;-68
2021/11/14 07:33:52;;;;;;;8.40;6.90;;;;;;;;;;5072643;28;20189;-67
2021/11/14 07:36:21;;;;;;;8.68;6.88;;;;;;;;;;5073018;28;20217;-68
2021/11/14 07:38:48;;;;;;;8.68;7.40;;;;;;;;;;5068069;28;20464;-67
2021/11/14 07:41:24;;;;;;;9.10;8.10;;;;;;;;;;5071869;28;20194;-67
2021/11/14 07:43:53;;;;;;;18.73;14.05;;;;;;;;;;5072933;28;20272;-68
2021/11/14 07:46:20;;;;;;;14.65;12.23;;;;;;;;;;5072955;28;20190;-67
2021/11/14 07:48:48;;;;;;;16.52;12.90;;;;;;;;;;5072993;28;20198;-67
2021/11/14 07:51:15;;;;;;;9.55;8.15;;;;;;;;;;5072858;28;20277;-67
2021/11/14 07:53:48;;;;;;;9.73;8.52;;;;;;;;;;5072781;28;20191;-67
2021/11/14 07:56:20;;;;;;;8.35;7.50;;;;;;;;;;5072694;28;20254;-68
2021/11/14 07:58:53;;;;;;;9.60;7.72;;;;;;;;;;5072823;28;20259;-68
2021/11/14 08:01:33;;;;;;;8.32;7.20;;;;;;;;;;5070918;28;20649;-69
2021/11/14 08:04:05;;;;;;;12.77;7.05;;;;;;;;;;5072229;28;20194;-67
2021/11/14 08:06:34;;;;;;;8.65;7.18;;;;;;;;;;5068516;28;20230;-67
2021/11/14 08:09:07;;;;;;;8.90;7.78;;;;;;;;;;5065655;28;20264;-67
2021/11/14 08:11:34;;;;;;;25.27;13.82;;;;;;;;;;5063828;28;20228;-67
2021/11/14 08:14:02;;;;;;;22.02;13.32;;;;;;;;;;5066107;28;20183;-67
2021/11/14 08:16:30;;;;;;;12.48;9.55;;;;;;;;;;5070470;28;20229;-67
2021/11/14 08:19:00;;;;;;;11.48;10.27;;;;;;;;;;5071371;28;20603;-67
2021/11/14 08:21:33;;;;;;;13.13;11.50;;;;;;;;;;5068190;28;20201;-67
2021/11/14 08:24:20;;;;;;;11.63;9.23;;;;;;;;;;5072044;28;20190;-67
2021/11/14 08:26:47;;;;;;;12.55;11.30;;;;;;;;;;5071809;28;20567;-68
2021/11/14 08:29:16;;;;;;;18.58;17.08;;;;;;;;;;5071265;28;20247;-67
2021/11/14 08:31:43;;;;;;;14.30;12.90;;;;;;;;;;5071929;28;20281;-68
2021/11/14 08:34:12;;;;;;;12.70;10.95;;;;;;;;;;5071717;28;20193;-67
2021/11/14 08:36:43;;;;;;;9.38;8.35;;;;;;;;;;5071807;28;20225;-68
2021/11/14 08:39:12;;;;;;;11.85;9.80;;;;;;;;;;5071448;28;20280;-67
2021/11/14 08:41:40;;;;;;;11.90;10.70;;;;;;;;;;5071940;28;20786;-67
2021/11/14 08:44:07;;;;;;;9.15;8.23;;;;;;;;;;5070892;28;20714;-67
2021/11/14 08:46:37;;;;;;;14.05;9.75;;;;;;;;;;5072358;28;20292;-67
2021/11/14 08:49:05;;;;;;;9.50;8.60;;;;;;;;;;5071016;28;20269;-68
2021/11/14 08:51:34;;;;;;;9.65;8.65;;;;;;;;;;5071747;28;20202;-67
2021/11/14 08:54:02;;;;;;;9.20;8.13;;;;;;;;;;5072209;28;20262;-67
2021/11/14 08:56:29;;;;;;;10.82;9.73;;;;;;;;;;5071775;28;20257;-68
2021/11/14 08:58:56;;;;;;;9.50;8.52;;;;;;;;;;5072077;28;20232;-67
2021/11/14 09:01:24;;;;;;;9.35;8.45;;;;;;;;;;5072082;28;20661;-68
2021/11/14 09:03:51;;;;;;;10.15;9.23;;;;;;;;;;5070141;28;20209;-67
2021/11/14 09:06:23;;;;;;;10.80;8.95;;;;;;;;;;5071365;28;20232;-67
2021/11/14 09:08:55;;;;;;;9.68;8.65;;;;;;;;;;5070138;28;20182;-67
2021/11/14 09:11:32;;;;;;;10.65;8.98;;;;;;;;;;5071571;28;20696;-67
2021/11/14 09:14:04;;;;;;;12.52;10.15;;;;;;;;;;5070917;28;20197;-67
2021/11/14 09:16:32;;;;;;;9.75;8.63;;;;;;;;;;5071394;28;20263;-67
2021/11/14 09:19:04;;;;;;;10.27;9.25;;;;;;;;;;5071125;28;20676;-68
2021/11/14 09:21:31;;;;;;;11.50;10.30;;;;;;;;;;5072044;28;20248;-67
2021/11/14 09:24:05;;;;;;;10.65;9.23;;;;;;;;;;5071112;28;20228;-67
2021/11/14 09:26:38;;;;;;;13.65;9.48;;;;;;;;;;5070319;28;20185;-67
2021/11/14 09:29:06;;;;;;;15.10;13.57;;;;;;;;;;5070869;28;20221;-67
2021/11/14 09:31:34;;;;;;;12.63;9.73;;;;;;;;;;5070898;28;20276;-67
2021/11/14 09:34:02;;;;;;;11.35;8.45;;;;;;;;;;5070028;28;20182;-68
2021/11/14 09:36:35;;;;;;;12.10;10.55;;;;;;;;;;5070805;28;20306;-67
2021/11/14 09:39:10;;;;;;;11.80;10.60;;;;;;;;;;5070105;28;20293;-67
2021/11/14 09:41:43;;;;;;;12.20;10.13;;;;;;;;;;5067123;28;20690;-67
2021/11/14 09:44:11;;;;;;;15.63;11.40;;;;;;;;;;5070456;28;20194;-67
2021/11/14 09:46:40;;;;;;;13.10;11.55;;;;;;;;;;5071109;28;20204;-68
2021/11/14 09:49:08;;;;;;;10.80;9.70;;;;;;;;;;5067530;28;20193;-67
2021/11/14 09:51:37;;;;;;;12.70;10.20;;;;;;;;;;5070866;28;20726;-67
2021/11/14 09:54:05;;;;;;;14.40;9.55;;;;;;;;;;5070921;28;20247;-67
2021/11/14 09:56:32;;;;;;;15.88;10.93;;;;;;;;;;5070404;28;20218;-67
2021/11/14 09:59:01;;;;;;;14.75;10.68;;;;;;;;;;5070479;28;20248;-67
2021/11/14 10:01:33;;;;;;;13.93;10.30;;;;;;;;;;5070377;28;20183;-67
2021/11/14 10:04:00;;;;;;;14.32;10.32;;;;;;;;;;5070589;28;20217;-68
2021/11/14 10:06:28;;;;;;;15.55;11.00;;;;;;;;;;5070635;28;20264;-67
2021/11/14 10:08:57;;;;;;;15.77;11.70;;;;;;;;;;5069337;28;20194;-67
2021/11/14 10:11:35;;;;;;;15.30;10.20;;;;;;;;;;5070187;28;20655;-68
2021/11/14 10:14:04;;;;;;;15.88;11.95;;;;;;;;;;5067530;28;20186;-67
2021/11/14 10:16:33;;;;;;;13.13;10.25;;;;;;;;;;5070322;28;20224;-67
2021/11/14 10:19:07;;;;;;;13.23;9.90;;;;;;;;;;5069897;28;20660;-68
2021/11/14 10:21:36;;;;;;;17.25;11.32;;;;;;;;;;5070415;28;20213;-68
2021/11/14 10:24:05;;;;;;;16.50;12.00;;;;;;;;;;5069971;28;20182;-68
2021/11/14 10:26:36;;;;;;;15.85;11.60;;;;;;;;;;5070777;28;20218;-67
2021/11/14 10:29:06;;;;;;;15.80;11.73;;;;;;;;;;5069879;28;20192;-68
2021/11/14 10:31:36;;;;;;;16.17;10.50;;;;;;;;;;5070578;28;20193;-69
2021/11/14 10:34:04;;;;;;;21.05;12.40;;;;;;;;;;5066219;28;20190;-68
2021/11/14 10:36:32;;;;;;;14.38;11.25;;;;;;;;;;5070408;28;20222;-69
2021/11/14 10:39:02;;;;;;;12.70;10.02;;;;;;;;;;5070064;28;20190;-68
2021/11/14 10:41:29;;;;;;;18.65;11.15;;;;;;;;;;5066218;28;20691;-67
2021/11/14 10:44:06;;;;;;;16.08;11.25;;;;;;;;;;5070955;28;20201;-67
2021/11/14 10:46:37;;;;;;;16.65;10.30;;;;;;;;;;5070404;28;20273;-69
2021/11/14 10:49:10;;;;;;;14.93;11.25;;;;;;;;;;5066695;28;20202;-67
2021/11/14 10:51:38;;;;;;;18.42;11.57;;;;;;;;;;5073196;28;20865;-67
2021/11/14 10:54:15;;;;;;;16.60;10.80;;;;;;;;;;5074053;28;20198;-68
2021/11/14 10:57:00;;;;;;;15.60;11.10;;;;;;;;;;5073864;28;20216;-67
2021/11/14 10:59:29;;;;;;;14.50;10.82;;;;;;;;;;5070904;28;20259;-68
2021/11/14 11:01:56;;;;;;;14.82;10.98;;;;;;;;;;5070566;28;20204;-67
2021/11/14 11:04:24;;;;;;;14.77;11.48;;;;;;;;;;5073282;28;20197;-71
2021/11/14 11:06:54;;;;;;;14.27;11.40;;;;;;;;;;5072580;28;20214;-67
2021/11/14 11:09:36;;;;;;;15.10;11.80;;;;;;;;;;5073799;28;20197;-67
2021/11/14 11:12:18;;;;;;;17.92;11.38;;;;;;;;;;5068423;28;21018;-67
2021/11/14 11:14:55;;;;;;;18.17;13.02;;;;;;;;;;5069983;28;20194;-67
2021/11/14 11:17:23;;;;;;;16.33;11.93;;;;;;;;;;5072171;28;20224;-67
2021/11/14 11:19:51;;;;;;;17.50;11.80;;;;;;;;;;5073456;28;20194;-67
2021/11/14 11:22:19;;;;;;;17.27;12.68;;;;;;;;;;5072472;28;20197;-68
2021/11/14 11:24:51;;;;;;;16.30;13.20;;;;;;;;;;5073930;28;20194;-67
2021/11/14 11:27:19;;;;;;;18.27;12.85;;;;;;;;;;5073260;28;20293;-67
2021/11/14 11:29:49;;;;;;;16.60;12.88;;;;;;;;;;5072535;28;20189;-68
2021/11/14 11:32:19;;;;;;;18.50;13.32;;;;;;;;;;5073136;28;20575;-67
2021/11/14 11:34:47;;;;;;;17.50;13.48;;;;;;;;;;5074388;28;20202;-67
2021/11/14 11:37:19;;;;;;;18.42;13.27;;;;;;;;;;5075238;28;20267;-67
2021/11/14 11:39:46;;;;;;;21.48;13.55;;;;;;;;;;5075417;28;20198;-67
2021/11/14 11:42:13;;;;;;;20.27;13.20;;;;;;;;;;5075590;28;20225;-67
2021/11/14 11:44:41;;;;;;;18.80;13.35;;;;;;;;;;5075594;28;20248;-67
2021/11/14 11:47:10;;;;;;;22.05;15.07;;;;;;;;;;5075161;28;20277;-67
2021/11/14 11:49:40;;;;;;;17.83;13.63;;;;;;;;;;5075158;28;20248;-67
2021/11/14 11:52:09;;;;;;;23.80;15.75;;;;;;;;;;5075379;28;20229;-67
2021/11/14 11:54:37;;;;;;;23.23;15.93;;;;;;;;;;5075228;28;20190;-67
2021/11/14 11:57:06;;;;;;;22.77;15.23;;;;;;;;;;5075040;28;20301;-67
2021/11/14 11:59:35;;;;;;;22.70;14.98;;;;;;;;;;5075183;28;20260;-67
2021/11/14 12:02:04;;;;;;;23.05;15.38;;;;;;;;;;5074267;28;20277;-67
2021/11/14 12:04:32;;;;;;;21.27;15.18;;;;;;;;;;5074830;28;20197;-67
2021/11/14 12:07:03;;;;;;;22.35;15.82;;;;;;;;;;5074866;28;20276;-67
2021/11/14 12:09:37;;;;;;;20.88;15.60;;;;;;;;;;5075147;28;20232;-67
2021/11/14 12:12:05;;;;;;;23.13;18.08;;;;;;;;;;5074767;28;20287;-67
2021/11/14 12:14:33;;;;;;;25.45;16.08;;;;;;;;;;5074951;28;20230;-67
2021/11/14 12:17:03;;;;;;;28.73;17.20;;;;;;;;;;5074837;28;20296;-67
2021/11/14 12:19:31;;;;;;;24.83;17.33;;;;;;;;;;5074775;28;20635;-67
2021/11/14 12:22:04;;;;;;;23.95;17.10;;;;;;;;;;5074797;28;20641;-67
2021/11/14 12:24:32;;;;;;;24.23;15.98;;;;;;;;;;5074738;28;20306;-67
2021/11/14 12:27:00;;;;;;;26.67;18.17;;;;;;;;;;5074658;28;20276;-69
2021/11/14 12:29:32;;;;;;;26.67;17.58;;;;;;;;;;5074597;28;20240;-67
2021/11/14 12:32:00;;;;;;;25.25;17.30;;;;;;;;;;5074478;28;20269;-67
2021/11/14 12:34:29;;;;;;;24.25;16.25;;;;;;;;;;5074365;28;20244;-67
2021/11/14 12:37:11;;;;;;;31.50;18.40;;;;;;;;;;5074414;28;20629;-67
2021/11/14 12:39:39;;;;;;;27.90;18.00;;;;;;;;;;5074597;28;20240;-67
2021/11/14 12:42:08;;;;;;;28.45;17.58;;;;;;;;;;5074238;28;20198;-67
2021/11/14 12:44:37;;;;;;;24.77;18.40;;;;;;;;;;5073814;28;20201;-67
2021/11/14 12:47:16;;;;;;;29.40;18.83;;;;;;;;;;5074349;28;20225;-67
2021/11/14 12:49:47;;;;;;;26.52;16.65;;;;;;;;;;5074424;28;20194;-68
2021/11/14 12:52:23;;;;;;;27.77;17.75;;;;;;;;;;5074065;28;20698;-67
2021/11/14 12:54:51;;;;;;;28.15;18.38;;;;;;;;;;5074170;28;20250;-67
2021/11/14 12:57:18;;;;;;;24.17;16.40;;;;;;;;;;5074040;28;20218;-67
2021/11/14 12:59:48;;;;;;;22.70;15.98;;;;;;;;;;5074001;28;20221;-67
2021/11/14 13:02:23;;;;;;;22.33;15.30;;;;;;;;;;5073627;28;20198;-67
2021/11/14 13:04:51;;;;;;;29.65;20.13;;;;;;;;;;5073887;28;20327;-67
2021/11/14 13:07:26;;;;;;;21.52;14.70;;;;;;;;;;5073661;28;20186;-67
2021/11/14 13:09:54;;;;;;;25.13;16.02;;;;;;;;;;5073889;28;20612;-67
2021/11/14 13:12:21;;;;;;;21.95;14.65;;;;;;;;;;5073676;28;20406;-67
2021/11/14 13:14:49;;;;;;;22.55;17.05;;;;;;;;;;5073665;28;20653;-67
2021/11/14 13:17:18;;;;;;;19.75;14.00;;;;;;;;;;5073633;28;20253;-67
2021/11/14 13:19:46;;;;;;;21.13;14.05;;;;;;;;;;5073681;28;20229;-67
2021/11/14 13:22:15;;;;;;;21.67;14.25;;;;;;;;;;5073591;28;20286;-67
2021/11/14 13:24:48;;;;;;;19.85;14.18;;;;;;;;;;5073416;28;20206;-67
2021/11/14 13:27:16;;;;;;;18.42;13.95;;;;;;;;;;5073528;28;20205;-67
2021/11/14 13:29:44;;;;;;;25.98;16.15;;;;;;;;;;5073350;28;20190;-68
2021/11/14 13:32:13;;;;;;;21.20;15.32;;;;;;;;;;5073415;28;20738;-67
2021/11/14 13:34:41;;;;;;;21.45;14.95;;;;;;;;;;5073317;28;20281;-67
2021/11/14 13:37:10;;;;;;;21.60;14.02;;;;;;;;;;5073165;28;20564;-67
2021/11/14 13:39:38;;;;;;;22.90;14.85;;;;;;;;;;5073146;28;20541;-67
2021/11/14 13:42:08;;;;;;;26.25;14.50;;;;;;;;;;5072927;28;20244;-66
2021/11/14 13:44:37;;;;;;;25.10;15.23;;;;;;;;;;5072984;28;20277;-67
2021/11/14 13:47:05;;;;;;;19.23;14.15;;;;;;;;;;5072977;28;20194;-66
2021/11/14 13:49:34;;;;;;;21.70;14.50;;;;;;;;;;5072722;28;20198;-67
2021/11/14 13:52:01;;;;;;;16.77;12.32;;;;;;;;;;5072793;28;20281;-67
2021/11/14 13:54:29;;;;;;;22.05;14.15;;;;;;;;;;5072863;28;20229;-67
2021/11/14 13:56:56;;;;;;;22.15;15.40;;;;;;;;;;5072993;28;20281;-67
2021/11/14 13:59:25;;;;;;;22.27;14.90;;;;;;;;;;5072635;28;20308;-67
2021/11/14 14:01:56;;;;;;;23.40;14.48;;;;;;;;;;5072300;28;20240;-67
2021/11/14 14:04:25;;;;;;;19.00;13.43;;;;;;;;;;5072643;28;20197;-67
2021/11/14 14:06:59;;;;;;;22.27;13.95;;;;;;;;;;5072575;28;20186;-67
2021/11/14 14:09:26;;;;;;;25.15;14.05;;;;;;;;;;5072714;28;20285;-67
2021/11/14 14:11:54;;;;;;;22.48;14.60;;;;;;;;;;5072393;28;20217;-66
2021/11/14 14:14:21;;;;;;;23.58;14.77;;;;;;;;;;5072716;28;20221;-67
2021/11/14 14:16:50;;;;;;;23.73;13.55;;;;;;;;;;5072582;28;20225;-67
2021/11/14 14:19:17;;;;;;;19.48;12.98;;;;;;;;;;5072572;28;20253;-67
2021/11/14 14:21:44;;;;;;;21.15;15.10;;;;;;;;;;5072572;28;20252;-67
2021/11/14 14:24:11;;;;;;;19.35;11.60;;;;;;;;;;5072259;28;20281;-66
2021/11/14 14:26:39;;;;;;;20.63;13.70;;;;;;;;;;5072139;28;20190;-67
2021/11/14 14:29:10;;;;;;;17.70;12.80;;;;;;;;;;5072651;28;20205;-66
2021/11/14 14:31:37;;;;;;;17.25;11.88;;;;;;;;;;5072248;28;20202;-66
2021/11/14 14:34:10;;;;;;;17.98;12.95;;;;;;;;;;5072548;28;20221;-66
2021/11/14 14:36:38;;;;;;;20.80;12.02;;;;;;;;;;5072247;28;20205;-66
2021/11/14 14:39:07;;;;;;;18.20;12.30;;;;;;;;;;5072376;28;20221;-66
2021/11/14 14:41:34;;;;;;;18.83;13.70;;;;;;;;;;5072458;28;20215;-66
2021/11/14 14:44:02;;;;;;;20.48;14.15;;;;;;;;;;5072393;28;20218;-66
2021/11/14 14:46:31;;;;;;;18.35;12.38;;;;;;;;;;5072366;28;20229;-66